sensor_id;sensor_type;location;lat;lon;timestamp;P1;durP1;ratioP1;P2;durP2;ratioP2
78372;SDS011;67656;52.074;4.758;2023-04-27T00:04:42;6.72;;;2.53;;
78372;SDS011;67656;52.074;4.758;2023-04-27T00:09:42;7.38;;;2.63;;
78372;SDS011;67656;52.074;4.758;2023-04-27T00:14:43;8.98;;;2.92;;
78372;SDS011;67656;52.074;4.758;2023-04-27T00:19:43;7.47;;;2.57;;
78372;SDS011;67656;52.074;4.758;2023-04-27T00:24:43;10.10;;;3.10;;
78372;SDS011;67656;52.074;4.758;2023-04-27T00:29:44;7.03;;;2.60;;
78372;SDS011;67656;52.074;4.758;2023-04-27T00:34:44;7.45;;;2.70;;
78372;SDS011;67656;52.074;4.758;2023-04-27T00:39:46;7.83;;;2.53;;
78372;SDS011;67656;52.074;4.758;2023-04-27T00:44:47;7.97;;;2.97;;
78372;SDS011;67656;52.074;4.758;2023-04-27T00:49:47;8.43;;;3.00;;
78372;SDS011;67656;52.074;4.758;2023-04-27T00:54:49;12.10;;;3.37;;
78372;SDS011;67656;52.074;4.758;2023-04-27T00:59:51;9.23;;;3.07;;
78372;SDS011;67656;52.074;4.758;2023-04-27T01:04:51;7.40;;;2.80;;
78372;SDS011;67656;52.074;4.758;2023-04-27T01:09:52;9.30;;;3.43;;
78372;SDS011;67656;52.074;4.758;2023-04-27T01:14:53;13.63;;;3.83;;
78372;SDS011;67656;52.074;4.758;2023-04-27T01:19:53;11.00;;;3.78;;
78372;SDS011;67656;52.074;4.758;2023-04-27T01:24:53;12.98;;;3.88;;
78372;SDS011;67656;52.074;4.758;2023-04-27T01:29:54;8.93;;;3.65;;
78372;SDS011;67656;52.074;4.758;2023-04-27T01:34:54;11.27;;;3.90;;
78372;SDS011;67656;52.074;4.758;2023-04-27T01:39:54;11.38;;;3.53;;
78372;SDS011;67656;52.074;4.758;2023-04-27T01:44:56;11.40;;;3.92;;
78372;SDS011;67656;52.074;4.758;2023-04-27T01:49:56;15.60;;;3.40;;
78372;SDS011;67656;52.074;4.758;2023-04-27T01:54:57;13.13;;;3.77;;
78372;SDS011;67656;52.074;4.758;2023-04-27T01:59:57;15.53;;;4.40;;
78372;SDS011;67656;52.074;4.758;2023-04-27T02:05:00;10.77;;;4.25;;
78372;SDS011;67656;52.074;4.758;2023-04-27T02:10:00;13.73;;;4.50;;
78372;SDS011;67656;52.074;4.758;2023-04-27T02:15:01;11.63;;;4.00;;
78372;SDS011;67656;52.074;4.758;2023-04-27T02:20:01;12.87;;;4.20;;
78372;SDS011;67656;52.074;4.758;2023-04-27T02:25:02;10.20;;;3.83;;
78372;SDS011;67656;52.074;4.758;2023-04-27T02:30:03;8.17;;;3.57;;
78372;SDS011;67656;52.074;4.758;2023-04-27T02:35:07;10.13;;;3.07;;
78372;SDS011;67656;52.074;4.758;2023-04-27T02:40:08;10.93;;;3.50;;
78372;SDS011;67656;52.074;4.758;2023-04-27T02:45:09;10.90;;;3.30;;
78372;SDS011;67656;52.074;4.758;2023-04-27T02:50:10;13.13;;;3.87;;
78372;SDS011;67656;52.074;4.758;2023-04-27T02:55:10;12.40;;;3.60;;
78372;SDS011;67656;52.074;4.758;2023-04-27T03:00:10;11.47;;;4.33;;
78372;SDS011;67656;52.074;4.758;2023-04-27T03:05:11;12.20;;;3.97;;
78372;SDS011;67656;52.074;4.758;2023-04-27T03:10:11;10.93;;;3.90;;
78372;SDS011;67656;52.074;4.758;2023-04-27T03:15:12;10.37;;;4.30;;
78372;SDS011;67656;52.074;4.758;2023-04-27T03:20:12;10.50;;;4.15;;
78372;SDS011;67656;52.074;4.758;2023-04-27T03:25:12;9.30;;;3.80;;
78372;SDS011;67656;52.074;4.758;2023-04-27T03:30:13;13.30;;;4.17;;
78372;SDS011;67656;52.074;4.758;2023-04-27T03:35:14;12.97;;;4.70;;
78372;SDS011;67656;52.074;4.758;2023-04-27T03:40:14;15.67;;;5.03;;
78372;SDS011;67656;52.074;4.758;2023-04-27T03:45:14;10.33;;;4.30;;
78372;SDS011;67656;52.074;4.758;2023-04-27T03:50:15;10.27;;;3.60;;
78372;SDS011;67656;52.074;4.758;2023-04-27T03:55:15;14.33;;;4.57;;
78372;SDS011;67656;52.074;4.758;2023-04-27T04:00:16;13.20;;;4.53;;
78372;SDS011;67656;52.074;4.758;2023-04-27T04:05:17;13.07;;;4.47;;
78372;SDS011;67656;52.074;4.758;2023-04-27T04:10:17;12.60;;;4.43;;
78372;SDS011;67656;52.074;4.758;2023-04-27T04:15:19;14.40;;;4.87;;
78372;SDS011;67656;52.074;4.758;2023-04-27T04:20:21;11.23;;;3.90;;
78372;SDS011;67656;52.074;4.758;2023-04-27T04:25:22;10.17;;;4.27;;
78372;SDS011;67656;52.074;4.758;2023-04-27T04:30:22;9.47;;;4.00;;
78372;SDS011;67656;52.074;4.758;2023-04-27T04:35:22;14.50;;;4.47;;
78372;SDS011;67656;52.074;4.758;2023-04-27T04:40:23;15.17;;;4.13;;
78372;SDS011;67656;52.074;4.758;2023-04-27T04:45:23;11.83;;;4.07;;
78372;SDS011;67656;52.074;4.758;2023-04-27T04:50:24;11.33;;;3.57;;
78372;SDS011;67656;52.074;4.758;2023-04-27T04:55:25;12.57;;;3.87;;
78372;SDS011;67656;52.074;4.758;2023-04-27T05:00:25;12.60;;;4.13;;
78372;SDS011;67656;52.074;4.758;2023-04-27T05:05:26;8.57;;;3.40;;
78372;SDS011;67656;52.074;4.758;2023-04-27T05:10:26;9.53;;;4.33;;
78372;SDS011;67656;52.074;4.758;2023-04-27T05:15:26;10.25;;;4.13;;
78372;SDS011;67656;52.074;4.758;2023-04-27T05:20:27;10.48;;;3.75;;
78372;SDS011;67656;52.074;4.758;2023-04-27T05:25:30;10.80;;;3.53;;
78372;SDS011;67656;52.074;4.758;2023-04-27T05:30:31;11.93;;;4.40;;
78372;SDS011;67656;52.074;4.758;2023-04-27T05:35:33;10.73;;;3.47;;
78372;SDS011;67656;52.074;4.758;2023-04-27T05:40:36;12.17;;;4.10;;
78372;SDS011;67656;52.074;4.758;2023-04-27T05:45:39;8.83;;;3.47;;
78372;SDS011;67656;52.074;4.758;2023-04-27T05:50:40;9.43;;;3.40;;
78372;SDS011;67656;52.074;4.758;2023-04-27T05:55:41;7.63;;;3.10;;
78372;SDS011;67656;52.074;4.758;2023-04-27T06:00:41;8.30;;;3.20;;
78372;SDS011;67656;52.074;4.758;2023-04-27T06:05:42;9.54;;;3.10;;
78372;SDS011;67656;52.074;4.758;2023-04-27T06:10:42;5.00;;;2.58;;
78372;SDS011;67656;52.074;4.758;2023-04-27T06:15:42;8.45;;;3.25;;
78372;SDS011;67656;52.074;4.758;2023-04-27T06:20:43;6.60;;;3.00;;
78372;SDS011;67656;52.074;4.758;2023-04-27T06:25:43;7.24;;;2.86;;
78372;SDS011;67656;52.074;4.758;2023-04-27T06:30:43;10.47;;;3.07;;
78372;SDS011;67656;52.074;4.758;2023-04-27T06:35:44;6.34;;;3.06;;
78372;SDS011;67656;52.074;4.758;2023-04-27T06:40:44;5.68;;;3.00;;
78372;SDS011;67656;52.074;4.758;2023-04-27T06:45:49;7.27;;;2.70;;
78372;SDS011;67656;52.074;4.758;2023-04-27T06:50:49;6.95;;;2.50;;
78372;SDS011;67656;52.074;4.758;2023-04-27T06:55:50;8.10;;;2.67;;
78372;SDS011;67656;52.074;4.758;2023-04-27T07:00:50;5.18;;;2.40;;
78372;SDS011;67656;52.074;4.758;2023-04-27T07:05:51;4.70;;;2.78;;
78372;SDS011;67656;52.074;4.758;2023-04-27T07:10:51;4.65;;;2.60;;
78372;SDS011;67656;52.074;4.758;2023-04-27T07:15:55;4.78;;;2.53;;
78372;SDS011;67656;52.074;4.758;2023-04-27T07:20:55;5.43;;;2.92;;
78372;SDS011;67656;52.074;4.758;2023-04-27T07:25:56;5.10;;;2.70;;
78372;SDS011;67656;52.074;4.758;2023-04-27T07:30:56;5.68;;;2.38;;
78372;SDS011;67656;52.074;4.758;2023-04-27T07:35:57;9.27;;;2.70;;
78372;SDS011;67656;52.074;4.758;2023-04-27T07:40:57;4.32;;;2.40;;
78372;SDS011;67656;52.074;4.758;2023-04-27T07:46:00;6.47;;;2.67;;
78372;SDS011;67656;52.074;4.758;2023-04-27T07:51:01;4.82;;;2.35;;
78372;SDS011;67656;52.074;4.758;2023-04-27T07:56:01;7.18;;;2.47;;
78372;SDS011;67656;52.074;4.758;2023-04-27T08:01:04;5.72;;;2.42;;
78372;SDS011;67656;52.074;4.758;2023-04-27T08:06:05;4.13;;;2.08;;
78372;SDS011;67656;52.074;4.758;2023-04-27T08:11:09;4.82;;;2.17;;
78372;SDS011;67656;52.074;4.758;2023-04-27T08:16:10;4.82;;;2.30;;
78372;SDS011;67656;52.074;4.758;2023-04-27T08:21:10;4.35;;;2.38;;
78372;SDS011;67656;52.074;4.758;2023-04-27T08:26:14;4.65;;;1.90;;
78372;SDS011;67656;52.074;4.758;2023-04-27T08:31:14;4.65;;;2.30;;
78372;SDS011;67656;52.074;4.758;2023-04-27T08:36:15;3.88;;;2.10;;
78372;SDS011;67656;52.074;4.758;2023-04-27T08:41:18;5.04;;;2.24;;
78372;SDS011;67656;52.074;4.758;2023-04-27T08:46:20;5.63;;;2.00;;
78372;SDS011;67656;52.074;4.758;2023-04-27T08:51:22;4.95;;;2.15;;
78372;SDS011;67656;52.074;4.758;2023-04-27T08:56:23;4.75;;;1.65;;
78372;SDS011;67656;52.074;4.758;2023-04-27T09:01:24;3.65;;;1.90;;
78372;SDS011;67656;52.074;4.758;2023-04-27T09:06:28;4.18;;;1.83;;
78372;SDS011;67656;52.074;4.758;2023-04-27T09:11:31;3.70;;;2.00;;
78372;SDS011;67656;52.074;4.758;2023-04-27T09:16:33;3.20;;;1.90;;
78372;SDS011;67656;52.074;4.758;2023-04-27T09:21:33;3.60;;;1.95;;
78372;SDS011;67656;52.074;4.758;2023-04-27T09:26:34;5.95;;;2.30;;
78372;SDS011;67656;52.074;4.758;2023-04-27T09:31:35;4.80;;;2.20;;
78372;SDS011;67656;52.074;4.758;2023-04-27T09:36:36;5.97;;;2.13;;
78372;SDS011;67656;52.074;4.758;2023-04-27T09:41:37;4.50;;;1.92;;
78372;SDS011;67656;52.074;4.758;2023-04-27T09:46:37;4.65;;;2.30;;
78372;SDS011;67656;52.074;4.758;2023-04-27T09:51:38;3.70;;;1.95;;
78372;SDS011;67656;52.074;4.758;2023-04-27T09:56:45;3.88;;;2.00;;
78372;SDS011;67656;52.074;4.758;2023-04-27T10:01:58;5.22;;;1.92;;
78372;SDS011;67656;52.074;4.758;2023-04-27T10:07:01;4.85;;;2.13;;
78372;SDS011;67656;52.074;4.758;2023-04-27T10:12:13;5.22;;;2.00;;
78372;SDS011;67656;52.074;4.758;2023-04-27T10:17:15;5.20;;;2.30;;
78372;SDS011;67656;52.074;4.758;2023-04-27T10:22:16;5.72;;;2.40;;
78372;SDS011;67656;52.074;4.758;2023-04-27T10:27:17;3.33;;;2.10;;
78372;SDS011;67656;52.074;4.758;2023-04-27T10:32:22;4.10;;;2.50;;
78372;SDS011;67656;52.074;4.758;2023-04-27T10:37:36;3.58;;;2.30;;
78372;SDS011;67656;52.074;4.758;2023-04-27T10:42:41;4.93;;;2.65;;
78372;SDS011;67656;52.074;4.758;2023-04-27T10:47:43;3.78;;;2.42;;
78372;SDS011;67656;52.074;4.758;2023-04-27T10:52:44;5.55;;;2.58;;
78372;SDS011;67656;52.074;4.758;2023-04-27T10:57:51;3.67;;;2.20;;
78372;SDS011;67656;52.074;4.758;2023-04-27T11:02:53;6.13;;;2.70;;
78372;SDS011;67656;52.074;4.758;2023-04-27T11:13:06;4.22;;;2.42;;
78372;SDS011;67656;52.074;4.758;2023-04-27T11:18:10;4.97;;;2.58;;
78372;SDS011;67656;52.074;4.758;2023-04-27T11:23:20;5.03;;;2.60;;
78372;SDS011;67656;52.074;4.758;2023-04-27T11:28:22;5.25;;;2.50;;
78372;SDS011;67656;52.074;4.758;2023-04-27T11:33:23;4.35;;;2.70;;
78372;SDS011;67656;52.074;4.758;2023-04-27T11:38:23;6.05;;;3.03;;
78372;SDS011;67656;52.074;4.758;2023-04-27T11:43:24;5.25;;;2.80;;
78372;SDS011;67656;52.074;4.758;2023-04-27T11:48:26;5.03;;;2.83;;
78372;SDS011;67656;52.074;4.758;2023-04-27T11:53:30;5.93;;;2.58;;
78372;SDS011;67656;52.074;4.758;2023-04-27T11:58:32;5.68;;;3.00;;
78372;SDS011;67656;52.074;4.758;2023-04-27T12:03:33;4.93;;;3.00;;
78372;SDS011;67656;52.074;4.758;2023-04-27T12:08:33;4.85;;;2.67;;
78372;SDS011;67656;52.074;4.758;2023-04-27T12:13:34;5.22;;;2.80;;
78372;SDS011;67656;52.074;4.758;2023-04-27T12:18:34;4.78;;;2.95;;
78372;SDS011;67656;52.074;4.758;2023-04-27T12:23:35;6.28;;;2.60;;
78372;SDS011;67656;52.074;4.758;2023-04-27T12:28:35;4.30;;;2.47;;
78372;SDS011;67656;52.074;4.758;2023-04-27T12:33:35;4.82;;;2.67;;
78372;SDS011;67656;52.074;4.758;2023-04-27T12:38:35;5.28;;;2.45;;
78372;SDS011;67656;52.074;4.758;2023-04-27T12:43:36;3.75;;;2.45;;
78372;SDS011;67656;52.074;4.758;2023-04-27T12:48:36;4.85;;;2.60;;
78372;SDS011;67656;52.074;4.758;2023-04-27T12:53:36;5.00;;;2.45;;
78372;SDS011;67656;52.074;4.758;2023-04-27T12:58:37;6.07;;;2.80;;
78372;SDS011;67656;52.074;4.758;2023-04-27T13:03:37;5.30;;;2.80;;
78372;SDS011;67656;52.074;4.758;2023-04-27T13:08:38;5.18;;;2.80;;
78372;SDS011;67656;52.074;4.758;2023-04-27T13:13:38;6.65;;;2.90;;
78372;SDS011;67656;52.074;4.758;2023-04-27T13:18:39;5.22;;;2.50;;
78372;SDS011;67656;52.074;4.758;2023-04-27T13:23:39;6.38;;;3.03;;
78372;SDS011;67656;52.074;4.758;2023-04-27T13:28:40;6.55;;;3.15;;
78372;SDS011;67656;52.074;4.758;2023-04-27T13:33:41;4.95;;;2.95;;
78372;SDS011;67656;52.074;4.758;2023-04-27T13:38:42;7.10;;;3.50;;
78372;SDS011;67656;52.074;4.758;2023-04-27T13:43:43;5.28;;;2.75;;
78372;SDS011;67656;52.074;4.758;2023-04-27T13:48:45;5.47;;;3.23;;
78372;SDS011;67656;52.074;4.758;2023-04-27T13:53:46;4.97;;;2.85;;
78372;SDS011;67656;52.074;4.758;2023-04-27T13:58:46;5.50;;;2.83;;
78372;SDS011;67656;52.074;4.758;2023-04-27T14:03:46;5.95;;;2.83;;
78372;SDS011;67656;52.074;4.758;2023-04-27T14:08:47;6.72;;;2.95;;
78372;SDS011;67656;52.074;4.758;2023-04-27T14:13:47;7.75;;;3.25;;
78372;SDS011;67656;52.074;4.758;2023-04-27T14:18:47;5.25;;;2.67;;
78372;SDS011;67656;52.074;4.758;2023-04-27T14:23:48;5.63;;;2.63;;
78372;SDS011;67656;52.074;4.758;2023-04-27T14:28:48;4.57;;;2.67;;
78372;SDS011;67656;52.074;4.758;2023-04-27T14:33:49;6.80;;;3.25;;
78372;SDS011;67656;52.074;4.758;2023-04-27T14:38:49;5.30;;;2.80;;
78372;SDS011;67656;52.074;4.758;2023-04-27T14:43:49;6.75;;;2.90;;
78372;SDS011;67656;52.074;4.758;2023-04-27T14:48:50;5.53;;;3.10;;
78372;SDS011;67656;52.074;4.758;2023-04-27T14:53:50;6.15;;;2.80;;
78372;SDS011;67656;52.074;4.758;2023-04-27T14:58:50;7.90;;;2.90;;
78372;SDS011;67656;52.074;4.758;2023-04-27T15:03:50;8.02;;;3.08;;
78372;SDS011;67656;52.074;4.758;2023-04-27T15:08:51;6.28;;;2.95;;
78372;SDS011;67656;52.074;4.758;2023-04-27T15:13:51;4.97;;;2.80;;
78372;SDS011;67656;52.074;4.758;2023-04-27T15:18:51;6.80;;;2.88;;
78372;SDS011;67656;52.074;4.758;2023-04-27T15:23:52;6.47;;;2.90;;
78372;SDS011;67656;52.074;4.758;2023-04-27T15:28:52;6.57;;;2.72;;
78372;SDS011;67656;52.074;4.758;2023-04-27T15:33:53;7.82;;;2.85;;
78372;SDS011;67656;52.074;4.758;2023-04-27T15:38:56;7.40;;;2.88;;
78372;SDS011;67656;52.074;4.758;2023-04-27T15:43:57;5.75;;;2.90;;
78372;SDS011;67656;52.074;4.758;2023-04-27T15:49:03;6.95;;;2.80;;
78372;SDS011;67656;52.074;4.758;2023-04-27T15:54:09;6.97;;;2.60;;
78372;SDS011;67656;52.074;4.758;2023-04-27T15:59:09;4.53;;;1.92;;
78372;SDS011;67656;52.074;4.758;2023-04-27T16:04:10;4.12;;;2.26;;
78372;SDS011;67656;52.074;4.758;2023-04-27T16:09:10;6.30;;;2.10;;
78372;SDS011;67656;52.074;4.758;2023-04-27T16:14:10;4.53;;;2.53;;
78372;SDS011;67656;52.074;4.758;2023-04-27T16:19:11;4.78;;;2.70;;
78372;SDS011;67656;52.074;4.758;2023-04-27T16:24:11;5.03;;;2.38;;
78372;SDS011;67656;52.074;4.758;2023-04-27T16:29:11;5.50;;;2.30;;
78372;SDS011;67656;52.074;4.758;2023-04-27T16:34:12;4.47;;;2.40;;
78372;SDS011;67656;52.074;4.758;2023-04-27T16:39:12;4.76;;;2.10;;
78372;SDS011;67656;52.074;4.758;2023-04-27T16:44:12;4.80;;;2.25;;
78372;SDS011;67656;52.074;4.758;2023-04-27T16:49:13;4.53;;;2.17;;
78372;SDS011;67656;52.074;4.758;2023-04-27T16:54:13;5.47;;;2.40;;
78372;SDS011;67656;52.074;4.758;2023-04-27T16:59:14;4.72;;;2.45;;
78372;SDS011;67656;52.074;4.758;2023-04-27T17:04:14;7.30;;;2.45;;
78372;SDS011;67656;52.074;4.758;2023-04-27T17:09:15;5.18;;;2.33;;
78372;SDS011;67656;52.074;4.758;2023-04-27T17:14:15;4.72;;;2.33;;
78372;SDS011;67656;52.074;4.758;2023-04-27T17:19:15;5.68;;;2.88;;
78372;SDS011;67656;52.074;4.758;2023-04-27T17:24:16;4.55;;;2.58;;
78372;SDS011;67656;52.074;4.758;2023-04-27T17:29:16;4.70;;;2.30;;
78372;SDS011;67656;52.074;4.758;2023-04-27T17:34:16;5.50;;;2.42;;
78372;SDS011;67656;52.074;4.758;2023-04-27T17:39:17;5.93;;;2.38;;
78372;SDS011;67656;52.074;4.758;2023-04-27T17:44:18;5.15;;;2.40;;
78372;SDS011;67656;52.074;4.758;2023-04-27T17:49:19;5.00;;;2.47;;
78372;SDS011;67656;52.074;4.758;2023-04-27T17:54:19;6.25;;;2.65;;
78372;SDS011;67656;52.074;4.758;2023-04-27T17:59:19;4.45;;;2.00;;
78372;SDS011;67656;52.074;4.758;2023-04-27T18:04:20;5.32;;;2.20;;
78372;SDS011;67656;52.074;4.758;2023-04-27T18:09:22;5.53;;;2.65;;
78372;SDS011;67656;52.074;4.758;2023-04-27T18:14:22;5.66;;;2.50;;
78372;SDS011;67656;52.074;4.758;2023-04-27T18:19:23;6.07;;;2.75;;
78372;SDS011;67656;52.074;4.758;2023-04-27T18:24:23;5.65;;;2.40;;
78372;SDS011;67656;52.074;4.758;2023-04-27T18:29:24;6.80;;;2.67;;
78372;SDS011;67656;52.074;4.758;2023-04-27T18:34:25;4.63;;;2.50;;
78372;SDS011;67656;52.074;4.758;2023-04-27T18:39:25;5.94;;;2.82;;
78372;SDS011;67656;52.074;4.758;2023-04-27T18:44:25;7.07;;;2.80;;
78372;SDS011;67656;52.074;4.758;2023-04-27T18:49:26;4.94;;;2.76;;
78372;SDS011;67656;52.074;4.758;2023-04-27T18:54:26;6.06;;;2.70;;
78372;SDS011;67656;52.074;4.758;2023-04-27T18:59:26;5.72;;;2.75;;
78372;SDS011;67656;52.074;4.758;2023-04-27T19:04:27;5.97;;;3.50;;
78372;SDS011;67656;52.074;4.758;2023-04-27T19:09:27;6.35;;;2.78;;
78372;SDS011;67656;52.074;4.758;2023-04-27T19:14:27;4.80;;;2.38;;
78372;SDS011;67656;52.074;4.758;2023-04-27T19:19:28;5.15;;;2.70;;
78372;SDS011;67656;52.074;4.758;2023-04-27T19:24:28;5.78;;;2.90;;
78372;SDS011;67656;52.074;4.758;2023-04-27T19:29:28;6.72;;;2.86;;
78372;SDS011;67656;52.074;4.758;2023-04-27T19:34:47;6.32;;;2.92;;
78372;SDS011;67656;52.074;4.758;2023-04-27T19:39:47;5.15;;;2.67;;
78372;SDS011;67656;52.074;4.758;2023-04-27T19:44:47;7.70;;;2.90;;
78372;SDS011;67656;52.074;4.758;2023-04-27T19:49:50;6.38;;;3.10;;
78372;SDS011;67656;52.074;4.758;2023-04-27T19:54:53;6.03;;;2.92;;
78372;SDS011;67656;52.074;4.758;2023-04-27T20:00:02;5.90;;;2.65;;
78372;SDS011;67656;52.074;4.758;2023-04-27T20:05:13;8.10;;;2.97;;
78372;SDS011;67656;52.074;4.758;2023-04-27T20:10:29;6.53;;;2.80;;
78372;SDS011;67656;52.074;4.758;2023-04-27T20:15:42;6.35;;;2.80;;
78372;SDS011;67656;52.074;4.758;2023-04-27T20:20:42;6.68;;;2.40;;
78372;SDS011;67656;52.074;4.758;2023-04-27T20:25:43;6.80;;;2.88;;
78372;SDS011;67656;52.074;4.758;2023-04-27T20:30:43;6.15;;;2.90;;
78372;SDS011;67656;52.074;4.758;2023-04-27T20:35:44;6.38;;;2.55;;
78372;SDS011;67656;52.074;4.758;2023-04-27T20:40:45;6.47;;;2.90;;
78372;SDS011;67656;52.074;4.758;2023-04-27T20:45:45;6.35;;;2.95;;
78372;SDS011;67656;52.074;4.758;2023-04-27T20:50:45;7.15;;;3.10;;
78372;SDS011;67656;52.074;4.758;2023-04-27T20:55:46;6.88;;;2.97;;
78372;SDS011;67656;52.074;4.758;2023-04-27T21:00:46;8.52;;;2.75;;
78372;SDS011;67656;52.074;4.758;2023-04-27T21:05:46;7.72;;;3.40;;
78372;SDS011;67656;52.074;4.758;2023-04-27T21:10:47;5.25;;;2.83;;
78372;SDS011;67656;52.074;4.758;2023-04-27T21:15:47;5.28;;;2.80;;
78372;SDS011;67656;52.074;4.758;2023-04-27T21:20:48;7.93;;;2.90;;
78372;SDS011;67656;52.074;4.758;2023-04-27T21:25:48;6.20;;;2.90;;
78372;SDS011;67656;52.074;4.758;2023-04-27T21:30:49;6.25;;;2.60;;
78372;SDS011;67656;52.074;4.758;2023-04-27T21:35:49;7.28;;;3.20;;
78372;SDS011;67656;52.074;4.758;2023-04-27T21:40:49;6.90;;;2.92;;
78372;SDS011;67656;52.074;4.758;2023-04-27T21:45:50;4.57;;;2.55;;
78372;SDS011;67656;52.074;4.758;2023-04-27T21:51:05;9.10;;;3.40;;
78372;SDS011;67656;52.074;4.758;2023-04-27T21:56:05;6.68;;;3.00;;
78372;SDS011;67656;52.074;4.758;2023-04-27T22:01:06;7.78;;;3.03;;
78372;SDS011;67656;52.074;4.758;2023-04-27T22:06:06;6.32;;;2.72;;
78372;SDS011;67656;52.074;4.758;2023-04-27T22:11:07;6.70;;;3.05;;
78372;SDS011;67656;52.074;4.758;2023-04-27T22:16:07;6.85;;;2.50;;
78372;SDS011;67656;52.074;4.758;2023-04-27T22:21:07;6.90;;;2.78;;
78372;SDS011;67656;52.074;4.758;2023-04-27T22:26:08;8.18;;;2.85;;
78372;SDS011;67656;52.074;4.758;2023-04-27T22:31:08;6.93;;;2.70;;
78372;SDS011;67656;52.074;4.758;2023-04-27T22:36:08;5.50;;;2.33;;
78372;SDS011;67656;52.074;4.758;2023-04-27T22:41:09;6.95;;;3.25;;
78372;SDS011;67656;52.074;4.758;2023-04-27T22:46:09;5.62;;;2.82;;
78372;SDS011;67656;52.074;4.758;2023-04-27T22:51:10;5.65;;;2.65;;
78372;SDS011;67656;52.074;4.758;2023-04-27T22:56:10;6.18;;;2.90;;
78372;SDS011;67656;52.074;4.758;2023-04-27T23:01:10;7.47;;;3.40;;
78372;SDS011;67656;52.074;4.758;2023-04-27T23:06:12;3.45;;;2.15;;
78372;SDS011;67656;52.074;4.758;2023-04-27T23:11:12;6.28;;;3.28;;
78372;SDS011;67656;52.074;4.758;2023-04-27T23:16:13;6.43;;;3.15;;
78372;SDS011;67656;52.074;4.758;2023-04-27T23:21:13;7.50;;;3.10;;
78372;SDS011;67656;52.074;4.758;2023-04-27T23:26:14;6.42;;;3.06;;
78372;SDS011;67656;52.074;4.758;2023-04-27T23:31:14;6.72;;;2.90;;
78372;SDS011;67656;52.074;4.758;2023-04-27T23:36:15;6.95;;;2.70;;
78372;SDS011;67656;52.074;4.758;2023-04-27T23:41:15;6.00;;;2.62;;
78372;SDS011;67656;52.074;4.758;2023-04-27T23:46:15;7.07;;;3.20;;
78372;SDS011;67656;52.074;4.758;2023-04-27T23:51:16;8.38;;;2.82;;
78372;SDS011;67656;52.074;4.758;2023-04-27T23:56:16;7.63;;;2.80;;
